createdAt,value
2019-03-24T00:04:32.412Z,78.27
2019-03-24T00:09:48.309Z,78.18
2019-03-24T00:12:16.763Z,78.26
2019-03-24T00:15:04.759Z,77.99
2019-03-24T00:17:33.217Z,78.20
2019-03-24T00:20:20.933Z,78.16
2019-03-24T00:23:08.753Z,77.97
2019-03-24T00:25:56.448Z,77.71
2019-03-24T00:28:44.140Z,78.30
2019-03-24T00:31:31.950Z,78.31
2019-03-24T00:34:19.471Z,79.66
2019-03-24T00:36:47.870Z,79.97
2019-03-24T00:39:56.183Z,80.04
2019-03-24T00:42:24.589Z,79.64
2019-03-24T00:45:12.243Z,80.17
2019-03-24T00:50:28.091Z,80.01
2019-03-24T00:53:15.599Z,79.80
2019-03-24T00:55:44.046Z,80.88
2019-03-24T00:58:31.515Z,80.58
2019-03-24T01:01:19.541Z,81.18
2019-03-24T01:03:47.932Z,81.98
2019-03-24T01:06:16.338Z,82.52
2019-03-24T01:08:44.736Z,82.26
2019-03-24T01:11:13.147Z,81.85
2019-03-24T01:13:41.541Z,81.36
2019-03-24T01:16:09.950Z,81.07
2019-03-24T01:18:38.347Z,80.94
2019-03-24T01:21:06.754Z,80.74
2019-03-24T01:23:35.151Z,80.91
2019-03-24T01:26:03.555Z,80.92
2019-03-24T01:31:38.512Z,80.66
2019-03-24T01:34:26.033Z,80.23
2019-03-24T01:37:13.552Z,79.79
2019-03-24T01:40:01.203Z,79.33
2019-03-24T01:42:29.609Z,79.06
2019-03-24T01:44:58.015Z,79.04
2019-03-24T01:47:45.660Z,79.12
2019-03-24T01:50:54.227Z,79.28
2019-03-24T01:53:22.623Z,79.11
2019-03-24T01:56:10.146Z,78.99
2019-03-24T02:01:25.987Z,78.74
2019-03-24T02:04:13.509Z,78.65
2019-03-24T02:07:01.035Z,78.50
2019-03-24T02:09:29.433Z,78.71
2019-03-24T02:12:17.087Z,78.75
2019-03-24T02:14:45.487Z,78.77
2019-03-24T02:19:48.392Z,78.57
2019-03-24T02:22:36.037Z,78.46
2019-03-24T02:25:44.354Z,78.52
2019-03-24T02:28:12.748Z,78.64
2019-03-24T02:30:41.163Z,78.56
2019-03-24T02:33:28.812Z,78.73
2019-03-24T02:35:57.223Z,78.71
2019-03-24T02:38:25.635Z,79.43
2019-03-24T02:41:33.939Z,79.17
2019-03-24T02:44:02.331Z,79.04
2019-03-24T02:46:49.989Z,79.02
2019-03-24T02:49:18.394Z,79.10
2019-03-24T02:52:06.294Z,79.14
2019-03-24T02:54:34.997Z,79.01
2019-03-24T02:57:03.420Z,78.87
2019-03-24T02:59:51.069Z,78.95
2019-03-24T03:04:53.114Z,79.17
2019-03-24T03:07:21.519Z,79.01
2019-03-24T03:12:37.359Z,78.97
2019-03-24T03:15:45.675Z,80.25
2019-03-24T03:18:14.079Z,80.48
2019-03-24T03:23:16.374Z,80.34
2019-03-24T03:25:44.781Z,80.22
2019-03-24T03:28:13.194Z,80.94
2019-03-24T03:31:01.015Z,80.89
2019-03-24T03:33:29.437Z,81.68
2019-03-24T03:36:17.340Z,81.18
2019-03-24T03:38:45.723Z,80.77
2019-03-24T03:41:14.134Z,80.97
2019-03-24T03:44:22.434Z,81.89
2019-03-24T03:46:53.028Z,81.92
2019-03-24T03:49:21.199Z,81.97
2019-03-24T03:51:49.603Z,82.01
2019-03-24T03:54:37.112Z,82.94
2019-03-24T03:57:33.809Z,84.42
2019-03-24T04:00:22.934Z,85.01
2019-03-24T04:03:40.434Z,85.56
2019-03-24T04:05:53.232Z,85.17
2019-03-24T04:08:35.314Z,85.04
2019-03-24T04:14:01.941Z,86.03
2019-03-24T04:16:30.354Z,86.62
2019-03-24T04:19:18.006Z,86.38
2019-03-24T04:21:46.408Z,86.17
2019-03-24T04:24:14.813Z,85.83
2019-03-24T04:29:22.922Z,86.06
2019-03-24T04:31:51.333Z,85.55
2019-03-24T04:34:59.638Z,85.74
2019-03-24T04:37:28.064Z,85.81
2019-03-24T04:40:15.717Z,85.63
2019-03-24T04:45:37.969Z,86.39
2019-03-24T04:48:06.375Z,86.09
2019-03-24T04:50:34.780Z,86.46
2019-03-24T04:53:03.186Z,86.10
2019-03-24T04:55:50.847Z,86.91
2019-03-24T04:58:19.255Z,88.28
2019-03-24T05:00:47.659Z,89.13
2019-03-24T05:03:16.066Z,88.69
2019-03-24T05:06:24.383Z,87.71
2019-03-24T05:09:32.690Z,87.41
2019-03-24T05:14:34.851Z,86.97
2019-03-24T05:17:03.272Z,86.24
2019-03-24T05:19:31.677Z,85.57
2019-03-24T05:22:19.200Z,86.03
2019-03-24T05:24:47.601Z,86.04
2019-03-24T05:27:16.015Z,86.63
2019-03-24T05:30:03.918Z,87.12
2019-03-24T05:32:51.575Z,86.83
2019-03-24T05:35:19.988Z,85.91
2019-03-24T05:40:23.020Z,85.15
2019-03-24T05:42:51.429Z,84.81
2019-03-24T05:45:19.828Z,84.33
2019-03-24T05:48:07.353Z,83.72
2019-03-24T05:50:35.746Z,83.46
2019-03-24T05:55:58.995Z,84.41
2019-03-24T05:58:27.391Z,85.11
2019-03-24T06:00:55.802Z,84.94
2019-03-24T06:03:24.212Z,84.69
2019-03-24T06:06:11.870Z,84.69
2019-03-24T06:08:59.385Z,84.66
2019-03-24T06:11:27.798Z,84.88
2019-03-24T06:13:56.195Z,84.88
2019-03-24T06:16:43.716Z,84.63
2019-03-24T06:19:12.116Z,84.55
2019-03-24T06:24:14.633Z,84.23
2019-03-24T06:26:43.094Z,84.28
2019-03-24T06:29:30.839Z,83.90
2019-03-24T06:32:18.548Z,84.09
2019-03-24T06:35:06.065Z,84.22
2019-03-24T06:37:34.477Z,83.97
2019-03-24T06:43:10.959Z,83.21
2019-03-24T06:45:51.239Z,83.15
2019-03-24T06:48:09.504Z,83.48
2019-03-24T06:50:37.910Z,83.27
2019-03-24T06:53:06.320Z,83.11
2019-03-24T06:55:53.842Z,83.15
2019-03-24T06:58:22.253Z,83.08
2019-03-24T07:01:09.769Z,83.44
2019-03-24T07:03:38.193Z,84.15
2019-03-24T07:06:25.737Z,84.12
2019-03-24T07:08:54.141Z,84.39
2019-03-24T07:11:22.564Z,83.96
2019-03-24T07:14:10.075Z,83.91
2019-03-24T07:16:38.492Z,83.30
2019-03-24T07:19:06.898Z,82.53
2019-03-24T07:21:54.557Z,81.65
2019-03-24T07:24:42.216Z,81.00
2019-03-24T07:27:10.631Z,79.62
2019-03-24T07:29:41.146Z,78.98
2019-03-24T07:32:28.279Z,79.52
2019-03-24T07:35:15.798Z,78.08
2019-03-24T07:38:03.325Z,75.45
2019-03-24T07:40:50.842Z,74.29
2019-03-24T07:46:12.892Z,72.79
2019-03-24T07:51:15.729Z,72.11
2019-03-24T07:54:03.255Z,71.65
2019-03-24T07:56:31.667Z,70.69
2019-03-24T07:59:19.324Z,70.26
2019-03-24T08:01:47.756Z,70.00
2019-03-24T08:04:16.161Z,68.67
2019-03-24T08:07:03.712Z,67.78
2019-03-24T08:09:32.118Z,67.40
2019-03-24T08:12:19.645Z,64.76
2019-03-24T08:17:35.498Z,48.48
2019-03-24T08:20:23.242Z,43.91
2019-03-24T08:25:25.451Z,46.38
2019-03-24T08:28:13.109Z,48.76
2019-03-24T08:30:41.519Z,46.08
2019-03-24T08:33:29.049Z,44.70
2019-03-24T08:36:16.697Z,45.64
2019-03-24T08:38:45.112Z,46.29
2019-03-24T08:41:13.521Z,41.81
2019-03-24T08:43:41.936Z,38.14
2019-03-24T08:48:57.789Z,37.00
2019-03-24T08:51:26.194Z,32.53
2019-03-24T08:54:13.716Z,33.58
2019-03-24T08:56:42.135Z,31.81
2019-03-24T08:59:29.794Z,32.15
2019-03-24T09:01:58.209Z,30.78
2019-03-24T09:04:26.610Z,33.90
2019-03-24T09:06:55.020Z,35.74
2019-03-24T09:09:23.430Z,38.63
2019-03-24T09:12:11.091Z,38.81
2019-03-24T09:14:39.493Z,41.43
2019-03-24T09:17:07.909Z,42.33
2019-03-24T09:19:36.297Z,40.36
2019-03-24T09:22:04.705Z,40.88
2019-03-24T09:24:52.226Z,41.57
2019-03-24T09:27:20.632Z,41.50
2019-03-24T09:29:49.038Z,42.12
2019-03-24T09:32:36.561Z,42.31
2019-03-24T09:35:44.869Z,40.99
2019-03-24T09:41:07.710Z,37.48
2019-03-24T09:43:36.293Z,38.37
2019-03-24T09:46:05.033Z,36.28
2019-03-24T09:48:33.601Z,36.55
2019-03-24T09:51:21.327Z,37.50
2019-03-24T09:53:49.916Z,36.33
2019-03-24T09:56:37.714Z,35.85
2019-03-24T09:59:06.264Z,36.85
2019-03-24T10:01:34.778Z,37.34
2019-03-24T10:04:03.445Z,36.27
2019-03-24T10:06:32.073Z,40.28
2019-03-24T10:09:00.653Z,42.15
2019-03-24T10:11:29.264Z,38.63
2019-03-24T10:13:57.950Z,36.80
2019-03-24T10:16:26.516Z,35.70
2019-03-24T10:18:55.094Z,37.82
2019-03-24T10:21:23.656Z,38.01
2019-03-24T10:23:52.337Z,37.11
2019-03-24T10:26:39.901Z,36.48
2019-03-24T10:29:27.557Z,38.56
2019-03-24T10:31:55.962Z,33.95
2019-03-24T10:34:24.617Z,39.69
2019-03-24T10:36:53.346Z,36.76
2019-03-24T10:39:22.059Z,39.80
2019-03-24T10:41:50.589Z,37.09
2019-03-24T10:44:40.361Z,37.96
2019-03-24T10:47:08.629Z,38.53
2019-03-24T10:49:37.276Z,38.64
2019-03-24T10:52:05.910Z,38.90
2019-03-24T10:54:34.517Z,38.46
2019-03-24T10:57:05.352Z,36.83
2019-03-24T10:59:33.439Z,36.86
2019-03-24T11:02:01.974Z,38.89
2019-03-24T11:04:30.647Z,38.46
2019-03-24T11:06:59.361Z,39.20
2019-03-24T11:09:27.913Z,37.70
2019-03-24T11:11:56.491Z,37.90
2019-03-24T11:14:25.111Z,39.53
2019-03-24T11:16:53.804Z,39.39
2019-03-24T11:21:56.180Z,40.15
2019-03-24T11:24:24.790Z,39.71
2019-03-24T11:26:53.446Z,39.13
2019-03-24T11:29:22.064Z,40.46
2019-03-24T11:31:50.580Z,41.27
2019-03-24T11:34:19.234Z,41.75
2019-03-24T11:36:47.856Z,41.96
2019-03-24T11:39:16.446Z,42.03
2019-03-24T11:41:45.069Z,41.08
2019-03-24T11:44:13.671Z,39.88
2019-03-24T11:46:42.661Z,41.43
2019-03-24T11:49:30.547Z,42.49
2019-03-24T11:51:59.134Z,43.09
2019-03-24T11:54:27.656Z,44.22
2019-03-24T11:56:56.209Z,44.78
2019-03-24T11:59:25.108Z,45.53
2019-03-24T12:01:53.686Z,45.09
2019-03-24T12:04:22.173Z,45.22
2019-03-24T12:06:50.730Z,47.42
2019-03-24T12:09:19.290Z,46.14
2019-03-24T12:11:47.838Z,47.59
2019-03-24T12:14:16.428Z,47.53
2019-03-24T12:16:45.063Z,46.80
2019-03-24T12:19:13.596Z,47.23
2019-03-24T12:21:42.141Z,47.99
2019-03-24T12:24:10.703Z,48.75
2019-03-24T12:26:39.270Z,48.33
2019-03-24T12:29:34.224Z,47.73
2019-03-24T12:32:05.500Z,48.68
2019-03-24T12:34:38.242Z,47.74
2019-03-24T12:40:52.456Z,46.66
2019-03-24T12:43:19.328Z,42.99
2019-03-24T12:45:42.355Z,42.67
2019-03-24T12:48:10.949Z,41.88
2019-03-24T12:50:39.580Z,42.12
2019-03-24T12:53:08.253Z,42.89
2019-03-24T12:55:36.801Z,42.51
2019-03-24T12:58:05.447Z,42.32
2019-03-24T13:01:13.929Z,38.11
2019-03-24T13:03:42.510Z,39.28
2019-03-24T13:06:11.220Z,38.41
2019-03-24T13:08:39.771Z,37.37
2019-03-24T13:11:08.298Z,36.73
2019-03-24T13:13:36.865Z,36.56
2019-03-24T13:16:05.562Z,36.79
2019-03-24T13:18:34.171Z,38.11
2019-03-24T13:21:21.805Z,38.62
2019-03-24T13:24:09.452Z,38.55
2019-03-24T13:26:57.348Z,36.95
2019-03-24T13:29:45.001Z,37.08
2019-03-24T13:32:13.397Z,38.76
2019-03-24T13:34:41.796Z,37.95
2019-03-24T13:37:10.209Z,39.83
2019-03-24T13:39:38.615Z,39.05
2019-03-24T13:42:07.017Z,36.88
2019-03-24T13:44:35.417Z,37.12
2019-03-24T13:47:23.069Z,38.14
2019-03-24T13:49:51.464Z,36.49
2019-03-24T13:52:38.988Z,36.02
2019-03-24T13:55:47.327Z,38.06
2019-03-24T13:58:55.611Z,35.18
2019-03-24T14:01:43.277Z,36.44
2019-03-24T14:04:11.674Z,37.55
2019-03-24T14:06:40.078Z,38.09
2019-03-24T14:09:48.394Z,36.68
2019-03-24T14:14:50.520Z,37.28
2019-03-24T14:17:38.176Z,38.41
2019-03-24T14:20:46.483Z,39.20
2019-03-24T14:23:14.888Z,39.18
2019-03-24T14:25:43.294Z,36.89
2019-03-24T14:28:30.946Z,36.55
2019-03-24T14:31:18.694Z,36.24
2019-03-24T14:33:47.091Z,36.49
2019-03-24T14:36:34.752Z,35.66
2019-03-24T14:39:22.395Z,36.22
2019-03-24T14:41:50.809Z,38.08
2019-03-24T14:50:01.398Z,37.00
2019-03-24T14:52:48.922Z,36.68
2019-03-24T14:55:17.325Z,35.62
2019-03-24T14:58:04.977Z,36.18
2019-03-24T15:00:53.000Z,36.70
2019-03-24T15:03:40.515Z,36.73
2019-03-24T15:06:08.911Z,35.58
2019-03-24T15:08:45.069Z,37.03
2019-03-24T15:11:13.536Z,35.80
2019-03-24T15:14:01.179Z,37.81
2019-03-24T15:19:28.750Z,39.04
2019-03-24T15:24:31.835Z,40.53
2019-03-24T15:27:19.497Z,40.88
2019-03-24T15:29:47.893Z,39.04
2019-03-24T15:32:35.544Z,36.98
2019-03-24T15:35:43.859Z,38.93
2019-03-24T15:38:12.267Z,38.57
2019-03-24T15:40:40.698Z,39.08
2019-03-24T15:43:09.119Z,39.78
2019-03-24T15:48:44.152Z,39.49
2019-03-24T15:51:17.204Z,40.71
2019-03-24T15:54:01.866Z,41.04
2019-03-24T15:56:30.289Z,40.73
2019-03-24T16:01:33.066Z,40.65
2019-03-24T16:04:01.498Z,40.26
2019-03-24T16:11:51.517Z,40.90
2019-03-24T16:14:39.283Z,42.21
2019-03-24T16:19:42.169Z,43.05
2019-03-24T16:22:50.505Z,43.28
2019-03-24T16:25:38.195Z,43.62
2019-03-24T16:28:06.984Z,43.59
2019-03-24T16:30:35.410Z,43.16
2019-03-24T16:33:04.207Z,43.49
2019-03-24T16:35:32.631Z,44.59
2019-03-24T16:38:20.384Z,43.87
2019-03-24T16:41:08.035Z,43.44
2019-03-24T16:43:36.523Z,43.91
2019-03-24T16:46:04.955Z,43.79
2019-03-24T16:48:36.972Z,43.65
2019-03-24T16:51:03.834Z,43.83
2019-03-24T16:53:32.423Z,43.57
2019-03-24T16:56:00.903Z,44.43
2019-03-24T16:58:29.439Z,44.38
2019-03-24T17:01:17.094Z,44.98
2019-03-24T17:04:04.868Z,44.82
2019-03-24T17:06:33.279Z,45.28
2019-03-24T17:11:56.967Z,44.49
2019-03-24T17:14:24.885Z,44.66
2019-03-24T17:16:53.331Z,45.66
2019-03-24T17:19:21.742Z,45.71
2019-03-24T17:21:50.481Z,45.68
2019-03-24T17:24:39.415Z,44.97
2019-03-24T17:27:27.080Z,44.81
2019-03-24T17:32:48.661Z,45.04
2019-03-24T17:35:36.384Z,44.56
2019-03-24T17:38:24.133Z,44.61
2019-03-24T17:40:52.528Z,44.38
2019-03-24T17:43:40.181Z,44.83
2019-03-24T17:46:27.702Z,45.23
2019-03-24T17:48:56.109Z,45.44
2019-03-24T17:51:24.508Z,45.79
2019-03-24T17:53:52.922Z,47.19
2019-03-24T17:56:21.315Z,47.98
2019-03-24T17:58:49.719Z,48.21
2019-03-24T18:01:37.233Z,48.44
2019-03-24T18:04:05.639Z,48.18
2019-03-24T18:06:53.157Z,49.08
2019-03-24T18:09:40.685Z,48.91
2019-03-24T18:12:28.190Z,49.78
2019-03-24T18:15:15.719Z,50.42
2019-03-24T18:17:44.138Z,50.93
2019-03-24T18:20:52.456Z,51.74
2019-03-24T18:23:20.846Z,52.24
2019-03-24T18:26:08.389Z,52.26
2019-03-24T18:28:56.042Z,53.17
2019-03-24T18:31:43.785Z,53.83
2019-03-24T18:34:12.199Z,54.52
2019-03-24T18:36:59.843Z,54.74
2019-03-24T18:42:02.347Z,54.67
2019-03-24T18:44:50.012Z,54.65
2019-03-24T18:47:39.378Z,55.14
2019-03-24T18:50:47.718Z,54.42
2019-03-24T18:53:16.129Z,54.87
2019-03-24T18:56:03.784Z,54.74
2019-03-24T18:58:32.180Z,54.84
2019-03-24T19:06:09.524Z,55.45
2019-03-24T19:08:57.209Z,55.54
2019-03-24T19:11:25.594Z,55.68
2019-03-24T19:14:13.114Z,56.43
2019-03-24T19:17:00.633Z,55.97
2019-03-24T19:19:48.153Z,56.26
2019-03-24T19:22:35.800Z,56.87
2019-03-24T19:25:44.121Z,56.59
2019-03-24T19:28:12.529Z,56.68
2019-03-24T19:30:40.939Z,57.50
2019-03-24T19:33:49.245Z,58.13
2019-03-24T19:36:17.651Z,58.85
2019-03-24T19:38:46.119Z,58.22
2019-03-24T19:43:48.176Z,57.26
2019-03-24T19:49:10.143Z,57.13
2019-03-24T19:51:57.798Z,57.66
2019-03-24T19:54:45.454Z,57.55
2019-03-24T19:57:13.853Z,57.56
2019-03-24T19:59:42.249Z,57.62
2019-03-24T20:02:10.661Z,57.56
2019-03-24T20:04:39.062Z,57.42
2019-03-24T20:07:07.465Z,56.88
2019-03-24T20:09:35.858Z,57.04
2019-03-24T20:12:23.595Z,57.19
2019-03-24T20:15:11.248Z,56.86
2019-03-24T20:20:27.088Z,56.80
2019-03-24T20:22:56.887Z,56.53
2019-03-24T20:25:25.608Z,56.42
2019-03-24T20:27:54.013Z,56.68
2019-03-24T20:30:41.756Z,56.57
2019-03-24T20:33:10.148Z,56.29
2019-03-24T20:35:57.664Z,56.09
2019-03-24T20:38:26.056Z,55.75
2019-03-24T20:41:13.702Z,55.77
2019-03-24T20:44:01.344Z,55.76
2019-03-24T20:46:48.869Z,55.29
2019-03-24T20:49:17.273Z,55.16
2019-03-24T20:51:45.683Z,55.42
2019-03-24T20:54:33.335Z,55.04
2019-03-24T20:57:01.733Z,54.75
2019-03-24T20:59:51.878Z,54.61
2019-03-24T21:02:38.847Z,54.91
2019-03-24T21:05:47.159Z,55.67
2019-03-24T21:08:15.608Z,56.91
2019-03-24T21:10:43.959Z,57.58
2019-03-24T21:13:12.368Z,58.27
2019-03-24T21:15:40.755Z,58.41
2019-03-24T21:18:09.158Z,58.47
2019-03-24T21:20:56.805Z,59.10
2019-03-24T21:23:44.453Z,59.04
2019-03-24T21:26:12.860Z,58.83
2019-03-24T21:28:41.259Z,59.04
2019-03-24T21:31:28.921Z,59.00
2019-03-24T21:33:57.308Z,58.91
2019-03-24T21:36:44.974Z,59.09
2019-03-24T21:39:13.376Z,59.40
2019-03-24T21:41:41.784Z,60.29
2019-03-24T21:44:29.431Z,60.84
2019-03-24T21:47:17.086Z,61.47
2019-03-24T21:50:04.733Z,62.20
2019-03-24T21:52:33.135Z,62.83
2019-03-24T21:55:01.536Z,63.04
2019-03-24T22:01:03.302Z,64.80
2019-03-24T22:03:31.708Z,65.46
2019-03-24T22:06:00.103Z,65.98
2019-03-24T22:08:47.771Z,66.73
2019-03-24T22:11:16.169Z,67.35
2019-03-24T22:13:44.577Z,67.54
2019-03-24T22:19:19.537Z,67.97
2019-03-24T22:21:47.942Z,68.09
2019-03-24T22:27:03.795Z,68.79
2019-03-24T22:29:51.440Z,68.65
2019-03-24T22:32:19.854Z,68.27
2019-03-24T22:34:48.247Z,68.76
2019-03-24T22:37:16.651Z,69.80
2019-03-24T22:40:25.014Z,70.27
2019-03-24T22:42:53.415Z,70.55
2019-03-24T22:45:41.074Z,71.07
2019-03-24T22:48:09.496Z,71.78
2019-03-24T22:50:57.035Z,72.33
2019-03-24T22:55:59.007Z,73.23
2019-03-24T22:58:27.413Z,73.00
2019-03-24T23:00:56.161Z,73.49
2019-03-24T23:03:43.886Z,73.99
2019-03-24T23:06:12.287Z,73.72
2019-03-24T23:09:20.651Z,73.65
2019-03-24T23:11:49.044Z,73.63
2019-03-24T23:14:17.495Z,73.45
2019-03-24T23:16:45.892Z,72.95
2019-03-24T23:19:54.494Z,73.17
2019-03-24T23:22:22.857Z,72.92
2019-03-24T23:25:10.505Z,72.98
2019-03-24T23:27:58.034Z,72.47
2019-03-24T23:30:45.682Z,72.79
2019-03-24T23:33:14.099Z,72.12
2019-03-24T23:35:42.499Z,72.48
2019-03-24T23:38:10.902Z,72.82
2019-03-24T23:40:58.419Z,72.28
2019-03-24T23:44:06.749Z,72.58
2019-03-24T23:46:35.135Z,73.35
2019-03-24T23:49:43.450Z,74.25
2019-03-24T23:52:11.854Z,73.85
2019-03-24T23:54:40.255Z,74.40
2019-03-24T23:57:27.907Z,74.73
